Report METAR

 

KSJC - San Jose, California, USA
Distance from station: NE 14km
Dati ricevuti: 07/12/2021 01:53
Haze, Coperto
Haze, Coperto
 Vento da calmo
Vento: Calma
Temperatura: 12°C
P.to Rugiada: 9°C
Umidità: 82%
Barometro: 1017.9 hPa
Summary: Haze
Nuvole: Coperto
Visibility: 8 km
Cloud details: Few Clouds 0 m
Molto nuvoloso 213 m
Coperto 335 m
2021/12/07 00:53 KSJC 070053Z 00000KT 5SM HZ FEW000 BKN007 OVC011 12/09 A3006 RMK AO2 SLP178 BR FEW000 T01170089
KNUQ - Moffett Nas/Mtn, California, USA
Distance from station: N 14km
Dati ricevuti: 07/12/2021 02:35
Mist, Coperto
Mist, Coperto
 Vento da calmo
Vento: Calma
Temperatura: 12°C
P.to Rugiada: 10°C
Umidità: 88%
Barometro: 1018.3 hPa
Summary: Mist
Nuvole: Coperto
Visibility: 6 km
Cloud details: Coperto 274 m
2021/12/07 01:35 KNUQ 070135Z AUTO 00000KT 4SM BR OVC009 12/10 A3007 RMK AO2
 
KPAO - Palo Alto, California, USA
Distance from station: NNO 23km
Dati ricevuti: 07/12/2021 00:47
DATI Obsoleti
Mist, Coperto
Mist, Coperto
 Vento da N
Vento: N 7 km/h
Temperatura: 11°C
P.to Rugiada: 9°C
Umidità: 88%
Barometro: 1018.6 hPa
Summary: Mist
Nuvole: Coperto
Visibility: 3 km
Cloud details: Coperto 152 m
2021/12/06 23:47 KPAO 062347Z 35004KT 2SM BR OVC005 11/09 A3008
KRHV - San Jose/Reid, California, USA
Distance from station: ENE 19km
Dati ricevuti: 07/12/2021 01:47
Mist, Coperto
Mist, Coperto
 Vento da calmo
Vento: Calma
Temperatura: 11°C
P.to Rugiada: 9°C
Umidità: 88%
Barometro: 1017.9 hPa
Summary: Mist
Nuvole: Coperto
Visibility: 5 km
Cloud details: Coperto 244 m
2021/12/07 00:47 KRHV 070047Z 00000KT 3SM BR OVC008 11/09 A3006
 
KOAK - Oakland, California, USA
Distance from station: NNO 50km
Dati ricevuti: 07/12/2021 01:53
Haze, Coperto
Haze, Coperto
 Vento da calmo
Vento: Calma
Temperatura: 11°C
P.to Rugiada: 9°C
Umidità: 88%
Barometro: 1018.3 hPa
Summary: Haze
Nuvole: Coperto
Visibility: 8 km
Cloud details: Few Clouds 457 m
Molto nuvoloso 3353 m
Coperto 6096 m
2021/12/07 00:53 KOAK 070053Z 00000KT 5SM HZ FEW015 BKN110 OVC200 11/09 A3007 RMK AO2 SLP183 T01110089
KSQL - San Carlos Airpo, California, USA
Distance from station: NO 34km
Dati ricevuti: 07/12/2021 02:47
Coperto
Coperto
 Vento da calmo
Vento: Calma
Temperatura: 11°C
P.to Rugiada: 10°C
Umidità: 94%
Barometro: 1017.9 hPa
Nuvole: Coperto
Visibility: 5 km
Cloud details: Coperto 274 m
2021/12/07 01:47 KSQL 070147Z 00000KT 3SM OVC009 11/10 A3006
 
KSFO - San Francisco, California, USA
Distance from station: NO 49km
Dati ricevuti: 07/12/2021 01:56
Haze, Coperto
Haze, Coperto
 Vento da NNE
Vento: NNE 6 km/h
Temperatura: 12°C
P.to Rugiada: 9°C
Umidità: 82%
Barometro: 1017.9 hPa
Summary: Haze
Nuvole: Coperto
Visibility: 10 km
Cloud details: Few Clouds 244 m
Molto nuvoloso 335 m
Coperto 3353 m
2021/12/07 00:56 KSFO 070056Z 03003KT 6SM HZ FEW008 BKN011 OVC110 12/09 A3006 RMK AO2 SLP178 T01220094
KE16 - San Martin, California, USA
Distance from station: ESE 43km
Dati ricevuti: 07/12/2021 02:35
Parz. nuvoloso
Parz. nuvoloso
 Vento da NO
Vento: NO 11 km/h
Temperatura: 10°C
Temperatura Vento: 8°C
P.to Rugiada: 9°C
Umidità: 94%
Barometro: 1018.6 hPa
Nuvole: Parz. nuvoloso
Visibility: 11 km
Cloud details: Parz. nuvoloso 457 m
2021/12/07 01:35 KE16 070135Z AUTO 32006KT 7SM SCT015 10/09 A3008 RMK AO2 PWINO PNO
 
KWVI - Watsonville, California, USA
Distance from station: SSE 44km
Dati ricevuti: 07/12/2021 01:53
Sereno
Sereno
 Vento da calmo
Vento: Calma
Temperatura: 12°C
P.to Rugiada: 9°C
Umidità: 82%
Barometro: 1017.3 hPa
Nuvole: Sereno
Visibility: 13 km
2021/12/07 00:53 KWVI 070053Z AUTO 00000KT 8SM CLR 12/09 A3004 RMK AO2 SLP174 T01170094
KHAF - Half Moon Bay, California, USA
Distance from station: ONO 50km
Dati ricevuti: 07/12/2021 02:35
Mist
Mist
 Vento da calmo
Vento: Calma
Temperatura: 11°C
P.to Rugiada: 11°C
Umidità: 100%
Barometro: 1017.3 hPa
Summary: Mist
Visibility: 10 km
2021/12/07 01:35 KHAF 070135Z AUTO 00000KT 6SM BR 11/11 A3004 RMK AO2
 
KHWD - Hayward, California, USA
Distance from station: N 44km
Dati ricevuti: 07/12/2021 02:01
Haze, Nuvoloso
Haze, Nuvoloso
 Vento da calmo
Vento: Calma
Temperatura: 12°C
P.to Rugiada: 8°C
Umidità: 77%
Barometro: 1017.9 hPa
Summary: Haze
Nuvole: Molto nuvoloso
Visibility: 8 km
Cloud details: Molto nuvoloso 3353 m
2021/12/07 01:01 KHWD 070101Z 00000KT 5SM HZ BKN110 12/08 A3006 RMK AO2 T01170083
KLVK - Livermore, California, USA
Distance from station: NNE 51km
Dati ricevuti: 07/12/2021 02:50
Parz. nuvoloso
Parz. nuvoloso
 Vento da calmo
Vento: Calma
Temperatura: 10°C
P.to Rugiada: 8°C
Umidità: 88%
Barometro: 1017.6 hPa
Nuvole: Parz. nuvoloso
Visibility: 11 km
Cloud details: Few Clouds 274 m
Parz. nuvoloso 3353 m
2021/12/07 01:50 KLVK 070150Z 00000KT 7SM FEW009 SCT110 10/08 A3005 RMK AO2